sensor_id;sensor_type;location;lat;lon;timestamp;pressure;altitude;pressure_sealevel;temperature;humidity
64841;BME280;51307;52.162;7.560;2023-06-14T00:01:46;101030.78;;;21.86;28.95
64841;BME280;51307;52.162;7.560;2023-06-14T00:04:13;101028.75;;;21.99;28.78
64841;BME280;51307;52.162;7.560;2023-06-14T00:06:39;101029.59;;;21.81;29.29
64841;BME280;51307;52.162;7.560;2023-06-14T00:09:05;101023.25;;;21.51;29.75
64841;BME280;51307;52.162;7.560;2023-06-14T00:11:31;101037.19;;;21.79;29.35
64841;BME280;51307;52.162;7.560;2023-06-14T00:13:57;101023.66;;;21.73;29.14
64841;BME280;51307;52.162;7.560;2023-06-14T00:16:22;101034.72;;;21.90;29.09
64841;BME280;51307;52.162;7.560;2023-06-14T00:18:48;101031.28;;;21.45;29.63
64841;BME280;51307;52.162;7.560;2023-06-14T00:21:14;101030.53;;;21.75;29.37
64841;BME280;51307;52.162;7.560;2023-06-14T00:23:40;101040.03;;;21.85;29.15
64841;BME280;51307;52.162;7.560;2023-06-14T00:26:05;101032.78;;;21.41;29.59
64841;BME280;51307;52.162;7.560;2023-06-14T00:28:31;101037.00;;;21.56;29.61
64841;BME280;51307;52.162;7.560;2023-06-14T00:30:56;101028.78;;;21.25;30.05
64841;BME280;51307;52.162;7.560;2023-06-14T00:33:22;101034.78;;;21.09;30.57
64841;BME280;51307;52.162;7.560;2023-06-14T00:35:47;101038.66;;;21.20;30.64
64841;BME280;51307;52.162;7.560;2023-06-14T00:38:13;101039.41;;;21.08;30.66
64841;BME280;51307;52.162;7.560;2023-06-14T00:40:38;101039.88;;;21.05;30.86
64841;BME280;51307;52.162;7.560;2023-06-14T00:43:04;101042.25;;;20.95;31.03
64841;BME280;51307;52.162;7.560;2023-06-14T00:45:30;101041.69;;;21.11;30.55
64841;BME280;51307;52.162;7.560;2023-06-14T00:47:57;101046.53;;;21.09;30.83
64841;BME280;51307;52.162;7.560;2023-06-14T00:50:23;101042.78;;;20.85;31.02
64841;BME280;51307;52.162;7.560;2023-06-14T00:52:49;101043.09;;;20.95;30.94
64841;BME280;51307;52.162;7.560;2023-06-14T00:55:15;101052.28;;;20.69;31.60
64841;BME280;51307;52.162;7.560;2023-06-14T00:57:41;101048.00;;;20.55;32.12
64841;BME280;51307;52.162;7.560;2023-06-14T01:00:07;101047.25;;;20.98;31.45
64841;BME280;51307;52.162;7.560;2023-06-14T01:02:38;101046.50;;;20.91;31.42
64841;BME280;51307;52.162;7.560;2023-06-14T01:05:06;101053.72;;;20.46;32.12
64841;BME280;51307;52.162;7.560;2023-06-14T01:12:44;101057.47;;;20.45;31.77
64841;BME280;51307;52.162;7.560;2023-06-14T01:15:14;101052.41;;;20.81;31.39
64841;BME280;51307;52.162;7.560;2023-06-14T01:17:41;101060.81;;;20.47;32.06
64841;BME280;51307;52.162;7.560;2023-06-14T01:20:11;101056.22;;;20.73;31.40
64841;BME280;51307;52.162;7.560;2023-06-14T01:22:51;101058.13;;;20.73;31.77
64841;BME280;51307;52.162;7.560;2023-06-14T01:25:18;101062.88;;;20.77;31.53
64841;BME280;51307;52.162;7.560;2023-06-14T01:27:55;101067.97;;;20.67;31.76
64841;BME280;51307;52.162;7.560;2023-06-14T01:30:22;101068.47;;;20.57;32.07
64841;BME280;51307;52.162;7.560;2023-06-14T01:32:54;101065.13;;;20.62;31.98
64841;BME280;51307;52.162;7.560;2023-06-14T01:35:21;101072.19;;;20.63;31.91
64841;BME280;51307;52.162;7.560;2023-06-14T01:37:48;101062.22;;;20.25;32.65
64841;BME280;51307;52.162;7.560;2023-06-14T01:40:16;101070.88;;;20.40;32.43
64841;BME280;51307;52.162;7.560;2023-06-14T01:42:44;101073.09;;;20.25;32.38
64841;BME280;51307;52.162;7.560;2023-06-14T01:45:11;101073.63;;;19.95;33.26
64841;BME280;51307;52.162;7.560;2023-06-14T01:47:43;101064.28;;;20.29;32.34
64841;BME280;51307;52.162;7.560;2023-06-14T01:50:10;101070.09;;;19.88;33.13
64841;BME280;51307;52.162;7.560;2023-06-14T01:52:37;101075.53;;;19.88;32.94
64841;BME280;51307;52.162;7.560;2023-06-14T01:55:04;101076.69;;;20.12;32.82
64841;BME280;51307;52.162;7.560;2023-06-14T01:57:30;101071.03;;;20.20;32.68
64841;BME280;51307;52.162;7.560;2023-06-14T01:59:56;101073.13;;;20.18;32.70
64841;BME280;51307;52.162;7.560;2023-06-14T02:02:22;101073.22;;;19.91;33.29
64841;BME280;51307;52.162;7.560;2023-06-14T02:04:47;101071.44;;;20.17;32.79
64841;BME280;51307;52.162;7.560;2023-06-14T02:07:13;101071.97;;;19.94;33.35
64841;BME280;51307;52.162;7.560;2023-06-14T02:09:40;101080.81;;;19.76;33.82
64841;BME280;51307;52.162;7.560;2023-06-14T02:12:06;101068.28;;;19.75;33.63
64841;BME280;51307;52.162;7.560;2023-06-14T02:14:32;101073.44;;;19.90;33.51
64841;BME280;51307;52.162;7.560;2023-06-14T02:16:57;101061.03;;;19.55;33.94
64841;BME280;51307;52.162;7.560;2023-06-14T02:19:24;101066.47;;;19.55;33.99
64841;BME280;51307;52.162;7.560;2023-06-14T02:21:49;101072.25;;;19.79;33.51
64841;BME280;51307;52.162;7.560;2023-06-14T02:24:15;101060.97;;;19.75;33.63
64841;BME280;51307;52.162;7.560;2023-06-14T02:26:41;101072.25;;;19.72;33.74
64841;BME280;51307;52.162;7.560;2023-06-14T02:29:07;101069.84;;;19.51;34.35
64841;BME280;51307;52.162;7.560;2023-06-14T02:31:35;101074.63;;;19.42;34.43
64841;BME280;51307;52.162;7.560;2023-06-14T02:34:01;101068.19;;;19.29;34.91
64841;BME280;51307;52.162;7.560;2023-06-14T02:36:27;101076.94;;;19.45;34.34
64841;BME280;51307;52.162;7.560;2023-06-14T02:38:55;101076.78;;;19.20;35.01
64841;BME280;51307;52.162;7.560;2023-06-14T02:41:23;101079.00;;;19.50;34.66
64841;BME280;51307;52.162;7.560;2023-06-14T02:43:49;101076.56;;;19.28;34.94
64841;BME280;51307;52.162;7.560;2023-06-14T02:46:14;101082.41;;;19.11;35.22
64841;BME280;51307;52.162;7.560;2023-06-14T02:48:40;101076.75;;;19.40;34.80
64841;BME280;51307;52.162;7.560;2023-06-14T02:51:05;101082.41;;;19.38;34.60
64841;BME280;51307;52.162;7.560;2023-06-14T02:53:31;101084.91;;;19.06;34.96
64841;BME280;51307;52.162;7.560;2023-06-14T02:55:56;101083.66;;;19.09;35.25
64841;BME280;51307;52.162;7.560;2023-06-14T02:58:22;101085.28;;;19.43;34.71
64841;BME280;51307;52.162;7.560;2023-06-14T03:00:50;101092.19;;;19.39;34.52
64841;BME280;51307;52.162;7.560;2023-06-14T03:03:18;101093.59;;;19.62;34.09
64841;BME280;51307;52.162;7.560;2023-06-14T03:05:46;101101.34;;;19.52;34.54
64841;BME280;51307;52.162;7.560;2023-06-14T03:08:21;101103.88;;;19.40;34.54
64841;BME280;51307;52.162;7.560;2023-06-14T03:10:53;101104.91;;;19.52;34.44
64841;BME280;51307;52.162;7.560;2023-06-14T03:13:18;101104.47;;;19.48;34.59
64841;BME280;51307;52.162;7.560;2023-06-14T03:15:48;101117.47;;;19.20;34.91
64841;BME280;51307;52.162;7.560;2023-06-14T03:18:18;101117.00;;;18.96;35.40
64841;BME280;51307;52.162;7.560;2023-06-14T03:20:44;101115.56;;;19.40;34.90
64841;BME280;51307;52.162;7.560;2023-06-14T03:23:11;101117.66;;;19.31;34.96
64841;BME280;51307;52.162;7.560;2023-06-14T03:25:37;101121.19;;;19.12;35.21
64841;BME280;51307;52.162;7.560;2023-06-14T03:28:06;101119.75;;;19.29;34.76
64841;BME280;51307;52.162;7.560;2023-06-14T03:30:32;101137.88;;;19.09;35.58
64841;BME280;51307;52.162;7.560;2023-06-14T03:32:58;101129.94;;;18.67;36.43
64841;BME280;51307;52.162;7.560;2023-06-14T03:35:26;101135.59;;;19.06;35.53
64841;BME280;51307;52.162;7.560;2023-06-14T03:37:52;101143.91;;;18.64;36.15
64841;BME280;51307;52.162;7.560;2023-06-14T03:40:19;101141.03;;;19.12;35.68
64841;BME280;51307;52.162;7.560;2023-06-14T03:42:45;101147.31;;;19.26;35.33
64841;BME280;51307;52.162;7.560;2023-06-14T03:45:11;101139.16;;;19.20;35.37
64841;BME280;51307;52.162;7.560;2023-06-14T03:47:36;101157.28;;;18.79;36.38
64841;BME280;51307;52.162;7.560;2023-06-14T03:50:03;101152.91;;;19.18;35.62
64841;BME280;51307;52.162;7.560;2023-06-14T03:52:29;101157.09;;;19.07;35.83
64841;BME280;51307;52.162;7.560;2023-06-14T03:54:56;101152.03;;;18.91;36.15
64841;BME280;51307;52.162;7.560;2023-06-14T03:57:23;101154.59;;;19.12;36.01
64841;BME280;51307;52.162;7.560;2023-06-14T03:59:49;101162.88;;;18.91;36.23
64841;BME280;51307;52.162;7.560;2023-06-14T04:02:15;101157.91;;;18.94;36.45
64841;BME280;51307;52.162;7.560;2023-06-14T04:04:44;101167.22;;;18.65;36.64
64841;BME280;51307;52.162;7.560;2023-06-14T04:07:16;101158.28;;;18.64;37.11
64841;BME280;51307;52.162;7.560;2023-06-14T04:09:46;101157.06;;;18.94;36.34
64841;BME280;51307;52.162;7.560;2023-06-14T04:12:11;101167.22;;;18.65;37.20
64841;BME280;51307;52.162;7.560;2023-06-14T04:14:37;101175.38;;;18.72;36.97
64841;BME280;51307;52.162;7.560;2023-06-14T04:17:03;101174.59;;;19.05;36.32
64841;BME280;51307;52.162;7.560;2023-06-14T04:19:29;101175.41;;;18.85;36.72
64841;BME280;51307;52.162;7.560;2023-06-14T04:21:55;101180.81;;;18.78;37.00
64841;BME280;51307;52.162;7.560;2023-06-14T04:24:20;101182.69;;;18.71;37.33
64841;BME280;51307;52.162;7.560;2023-06-14T04:26:46;101187.25;;;18.77;37.57
64841;BME280;51307;52.162;7.560;2023-06-14T04:29:14;101191.22;;;18.68;37.72
64841;BME280;51307;52.162;7.560;2023-06-14T04:31:45;101190.03;;;19.04;36.63
64841;BME280;51307;52.162;7.560;2023-06-14T04:34:11;101187.53;;;19.16;36.29
64841;BME280;51307;52.162;7.560;2023-06-14T04:36:42;101189.25;;;19.24;36.33
64841;BME280;51307;52.162;7.560;2023-06-14T04:39:18;101191.50;;;19.13;36.59
64841;BME280;51307;52.162;7.560;2023-06-14T04:41:43;101196.09;;;19.06;36.92
64841;BME280;51307;52.162;7.560;2023-06-14T04:44:09;101195.44;;;19.11;37.18
64841;BME280;51307;52.162;7.560;2023-06-14T04:46:35;101192.13;;;19.02;37.36
64841;BME280;51307;52.162;7.560;2023-06-14T04:49:17;101200.47;;;19.07;37.00
64841;BME280;51307;52.162;7.560;2023-06-14T04:51:46;101200.28;;;19.15;36.80
64841;BME280;51307;52.162;7.560;2023-06-14T04:54:12;101205.94;;;19.21;36.92
64841;BME280;51307;52.162;7.560;2023-06-14T04:56:41;101197.56;;;19.15;36.87
64841;BME280;51307;52.162;7.560;2023-06-14T04:59:11;101195.66;;;18.96;37.86
64841;BME280;51307;52.162;7.560;2023-06-14T05:01:38;101208.22;;;19.37;36.76
64841;BME280;51307;52.162;7.560;2023-06-14T05:04:03;101203.84;;;19.29;37.32
64841;BME280;51307;52.162;7.560;2023-06-14T05:06:30;101207.81;;;19.40;37.17
64841;BME280;51307;52.162;7.560;2023-06-14T05:08:56;101213.88;;;19.49;37.03
64841;BME280;51307;52.162;7.560;2023-06-14T05:11:22;101210.50;;;19.27;36.74
64841;BME280;51307;52.162;7.560;2023-06-14T05:13:52;101212.41;;;19.26;37.61
64841;BME280;51307;52.162;7.560;2023-06-14T05:16:17;101217.84;;;19.46;37.39
64841;BME280;51307;52.162;7.560;2023-06-14T05:18:52;101218.03;;;19.52;37.07
64841;BME280;51307;52.162;7.560;2023-06-14T05:21:17;101222.19;;;19.68;36.78
64841;BME280;51307;52.162;7.560;2023-06-14T05:23:44;101224.69;;;19.76;35.93
64841;BME280;51307;52.162;7.560;2023-06-14T05:26:10;101228.03;;;19.71;36.15
64841;BME280;51307;52.162;7.560;2023-06-14T05:28:36;101215.47;;;19.84;36.76
64841;BME280;51307;52.162;7.560;2023-06-14T05:31:02;101220.31;;;19.81;36.58
64841;BME280;51307;52.162;7.560;2023-06-14T05:33:27;101215.69;;;19.82;36.94
64841;BME280;51307;52.162;7.560;2023-06-14T05:35:54;101216.72;;;19.81;36.04
64841;BME280;51307;52.162;7.560;2023-06-14T05:38:19;101223.88;;;19.62;36.71
64841;BME280;51307;52.162;7.560;2023-06-14T05:40:45;101219.66;;;19.86;37.15
64841;BME280;51307;52.162;7.560;2023-06-14T05:43:10;101219.03;;;19.91;36.92
64841;BME280;51307;52.162;7.560;2023-06-14T05:45:36;101218.16;;;19.97;36.05
64841;BME280;51307;52.162;7.560;2023-06-14T05:48:01;101232.59;;;19.97;36.47
64841;BME280;51307;52.162;7.560;2023-06-14T05:50:27;101230.94;;;20.03;36.29
64841;BME280;51307;52.162;7.560;2023-06-14T05:52:53;101235.94;;;19.86;37.11
64841;BME280;51307;52.162;7.560;2023-06-14T05:55:19;101226.31;;;20.04;36.59
64841;BME280;51307;52.162;7.560;2023-06-14T05:57:45;101230.91;;;20.10;36.25
64841;BME280;51307;52.162;7.560;2023-06-14T06:00:11;101240.53;;;20.12;36.35
64841;BME280;51307;52.162;7.560;2023-06-14T06:02:43;101240.50;;;20.19;36.64
64841;BME280;51307;52.162;7.560;2023-06-14T06:05:12;101240.53;;;20.12;35.70
64841;BME280;51307;52.162;7.560;2023-06-14T06:07:39;101243.84;;;20.14;35.99
64841;BME280;51307;52.162;7.560;2023-06-14T06:10:05;101243.84;;;19.94;36.26
64841;BME280;51307;52.162;7.560;2023-06-14T06:12:32;101239.28;;;20.15;35.50
64841;BME280;51307;52.162;7.560;2023-06-14T06:14:58;101244.47;;;20.23;36.06
64841;BME280;51307;52.162;7.560;2023-06-14T06:17:25;101246.97;;;20.18;35.22
64841;BME280;51307;52.162;7.560;2023-06-14T06:19:50;101235.47;;;20.23;35.06
64841;BME280;51307;52.162;7.560;2023-06-14T06:22:16;101240.53;;;20.12;35.43
64841;BME280;51307;52.162;7.560;2023-06-14T06:24:42;101253.91;;;20.07;35.75
64841;BME280;51307;52.162;7.560;2023-06-14T06:27:07;101242.34;;;20.25;35.56
64841;BME280;51307;52.162;7.560;2023-06-14T06:29:33;101245.25;;;20.30;35.63
64841;BME280;51307;52.162;7.560;2023-06-14T06:32:00;101242.56;;;20.24;35.34
64841;BME280;51307;52.162;7.560;2023-06-14T06:34:26;101244.19;;;20.38;35.04
64841;BME280;51307;52.162;7.560;2023-06-14T06:36:51;101245.03;;;20.39;35.09
64841;BME280;51307;52.162;7.560;2023-06-14T06:39:17;101249.63;;;20.38;34.84
64841;BME280;51307;52.162;7.560;2023-06-14T06:41:42;101255.88;;;20.45;35.12
64841;BME280;51307;52.162;7.560;2023-06-14T06:44:08;101262.41;;;20.38;34.89
64841;BME280;51307;52.162;7.560;2023-06-14T06:46:35;101268.69;;;20.31;34.53
64841;BME280;51307;52.162;7.560;2023-06-14T06:49:00;101271.41;;;20.31;34.75
64841;BME280;51307;52.162;7.560;2023-06-14T06:51:26;101278.09;;;20.29;34.84
64841;BME280;51307;52.162;7.560;2023-06-14T06:53:53;101278.91;;;20.29;35.35
64841;BME280;51307;52.162;7.560;2023-06-14T06:56:20;101276.81;;;20.38;35.20
64841;BME280;51307;52.162;7.560;2023-06-14T06:58:47;101275.56;;;20.41;34.99
64841;BME280;51307;52.162;7.560;2023-06-14T07:01:12;101274.34;;;20.23;34.55
64841;BME280;51307;52.162;7.560;2023-06-14T07:03:38;101274.06;;;20.45;34.68
64841;BME280;51307;52.162;7.560;2023-06-14T07:06:04;101279.03;;;20.55;34.39
64841;BME280;51307;52.162;7.560;2023-06-14T07:08:29;101283.63;;;20.61;34.25
64841;BME280;51307;52.162;7.560;2023-06-14T07:10:55;101286.69;;;20.71;35.15
64841;BME280;51307;52.162;7.560;2023-06-14T07:13:20;101288.38;;;20.72;35.20
64841;BME280;51307;52.162;7.560;2023-06-14T07:15:46;101287.94;;;20.75;34.13
64841;BME280;51307;52.162;7.560;2023-06-14T07:18:12;101289.56;;;20.90;33.40
64841;BME280;51307;52.162;7.560;2023-06-14T07:20:38;101284.63;;;20.73;33.97
64841;BME280;51307;52.162;7.560;2023-06-14T07:23:04;101289.16;;;20.93;33.41
64841;BME280;51307;52.162;7.560;2023-06-14T07:25:30;101287.88;;;20.95;33.49
64841;BME280;51307;52.162;7.560;2023-06-14T07:27:56;101283.03;;;21.04;33.25
64841;BME280;51307;52.162;7.560;2023-06-14T07:30:21;101284.28;;;21.02;32.34
64841;BME280;51307;52.162;7.560;2023-06-14T07:32:52;101284.28;;;21.02;31.54
64841;BME280;51307;52.162;7.560;2023-06-14T07:35:18;101285.81;;;20.91;32.48
64841;BME280;51307;52.162;7.560;2023-06-14T07:37:43;101293.28;;;21.02;32.96
64841;BME280;51307;52.162;7.560;2023-06-14T07:40:10;101294.50;;;21.06;32.87
64841;BME280;51307;52.162;7.560;2023-06-14T07:42:36;101289.94;;;21.00;32.25
64841;BME280;51307;52.162;7.560;2023-06-14T07:45:05;101292.84;;;21.05;33.07
64841;BME280;51307;52.162;7.560;2023-06-14T07:47:32;101292.03;;;20.98;33.00
64841;BME280;51307;52.162;7.560;2023-06-14T07:49:57;101291.22;;;20.97;33.02
64841;BME280;51307;52.162;7.560;2023-06-14T07:52:23;101286.09;;;21.14;32.61
64841;BME280;51307;52.162;7.560;2023-06-14T07:54:49;101274.88;;;21.04;32.91
64841;BME280;51307;52.162;7.560;2023-06-14T07:57:14;101293.28;;;21.02;32.85
64841;BME280;51307;52.162;7.560;2023-06-14T07:59:40;101291.00;;;20.99;32.43
64841;BME280;51307;52.162;7.560;2023-06-14T08:02:06;101290.13;;;21.05;32.52
64841;BME280;51307;52.162;7.560;2023-06-14T08:04:32;101291.19;;;21.04;32.93
64841;BME280;51307;52.162;7.560;2023-06-14T08:06:59;101296.78;;;21.16;33.09
64841;BME280;51307;52.162;7.560;2023-06-14T08:09:24;101295.09;;;21.15;32.86
64841;BME280;51307;52.162;7.560;2023-06-14T08:11:50;101291.19;;;21.04;33.80
64841;BME280;51307;52.162;7.560;2023-06-14T08:14:16;101300.75;;;21.13;33.73
64841;BME280;51307;52.162;7.560;2023-06-14T08:16:42;101301.88;;;20.99;32.55
64841;BME280;51307;52.162;7.560;2023-06-14T08:19:07;101302.03;;;21.11;32.44
64841;BME280;51307;52.162;7.560;2023-06-14T08:21:33;101296.88;;;20.96;32.24
64841;BME280;51307;52.162;7.560;2023-06-14T08:24:01;101297.13;;;20.88;32.50
64841;BME280;51307;52.162;7.560;2023-06-14T08:26:27;101306.34;;;20.87;31.98
64841;BME280;51307;52.162;7.560;2023-06-14T08:28:57;101294.66;;;20.73;32.28
64841;BME280;51307;52.162;7.560;2023-06-14T08:31:23;101296.28;;;20.80;32.63
64841;BME280;51307;52.162;7.560;2023-06-14T08:33:49;101297.53;;;20.85;33.35
64841;BME280;51307;52.162;7.560;2023-06-14T08:36:15;101303.00;;;20.85;32.69
64841;BME280;51307;52.162;7.560;2023-06-14T08:38:41;101302.97;;;20.91;32.97
64841;BME280;51307;52.162;7.560;2023-06-14T08:41:07;101311.78;;;20.80;33.69
64841;BME280;51307;52.162;7.560;2023-06-14T08:43:34;101305.94;;;20.70;34.04
64841;BME280;51307;52.162;7.560;2023-06-14T08:46:03;101308.22;;;20.93;34.41
64841;BME280;51307;52.162;7.560;2023-06-14T08:48:30;101301.44;;;21.02;33.66
64841;BME280;51307;52.162;7.560;2023-06-14T08:51:02;101299.97;;;20.99;34.16
64841;BME280;51307;52.162;7.560;2023-06-14T08:53:33;101294.53;;;20.99;33.89
64841;BME280;51307;52.162;7.560;2023-06-14T08:56:02;101299.31;;;21.11;34.01
64841;BME280;51307;52.162;7.560;2023-06-14T08:58:30;101295.31;;;21.13;32.81
64841;BME280;51307;52.162;7.560;2023-06-14T09:01:01;101297.59;;;21.17;32.15
64841;BME280;51307;52.162;7.560;2023-06-14T09:03:27;101309.06;;;21.25;31.94
64841;BME280;51307;52.162;7.560;2023-06-14T09:05:56;101310.75;;;21.20;32.71
64841;BME280;51307;52.162;7.560;2023-06-14T09:08:25;101304.88;;;21.23;32.37
64841;BME280;51307;52.162;7.560;2023-06-14T09:10:51;101307.16;;;21.26;32.82
64841;BME280;51307;52.162;7.560;2023-06-14T09:13:17;101314.97;;;21.15;32.47
64841;BME280;51307;52.162;7.560;2023-06-14T09:15:43;101308.22;;;21.25;32.86
64841;BME280;51307;52.162;7.560;2023-06-14T09:18:09;101301.94;;;21.24;32.45
64841;BME280;51307;52.162;7.560;2023-06-14T09:20:34;101304.13;;;21.09;32.20
64841;BME280;51307;52.162;7.560;2023-06-14T09:23:00;101314.69;;;21.24;33.09
64841;BME280;51307;52.162;7.560;2023-06-14T09:25:26;101311.97;;;21.24;32.48
64841;BME280;51307;52.162;7.560;2023-06-14T09:27:52;101309.88;;;21.26;32.21
64841;BME280;51307;52.162;7.560;2023-06-14T09:30:20;101305.66;;;21.30;32.04
64841;BME280;51307;52.162;7.560;2023-06-14T09:32:46;101310.75;;;21.20;32.42
64841;BME280;51307;52.162;7.560;2023-06-14T09:35:12;101318.19;;;21.38;32.71
64841;BME280;51307;52.162;7.560;2023-06-14T09:37:38;101312.91;;;21.43;33.24
64841;BME280;51307;52.162;7.560;2023-06-14T09:40:04;101314.59;;;21.37;32.33
64841;BME280;51307;52.162;7.560;2023-06-14T09:42:30;101322.81;;;21.30;32.91
64841;BME280;51307;52.162;7.560;2023-06-14T09:44:57;101322.72;;;21.44;33.17
64841;BME280;51307;52.162;7.560;2023-06-14T09:47:23;101320.06;;;21.37;31.95
64841;BME280;51307;52.162;7.560;2023-06-14T09:49:50;101311.03;;;21.43;31.95
64841;BME280;51307;52.162;7.560;2023-06-14T09:52:18;101318.97;;;21.45;33.12
64841;BME280;51307;52.162;7.560;2023-06-14T09:54:46;101319.41;;;21.42;32.50
64841;BME280;51307;52.162;7.560;2023-06-14T09:57:20;101326.84;;;21.53;32.83
64841;BME280;51307;52.162;7.560;2023-06-14T09:59:48;101320.13;;;21.56;33.39
64841;BME280;51307;52.162;7.560;2023-06-14T10:02:28;101325.81;;;21.54;32.72
64841;BME280;51307;52.162;7.560;2023-06-14T10:07:33;101321.75;;;21.70;32.20
64841;BME280;51307;52.162;7.560;2023-06-14T10:10:01;101328.06;;;21.64;31.69
64841;BME280;51307;52.162;7.560;2023-06-14T10:12:26;101328.88;;;21.71;31.91
64841;BME280;51307;52.162;7.560;2023-06-14T10:14:53;101332.19;;;21.73;32.25
64841;BME280;51307;52.162;7.560;2023-06-14T10:17:35;101328.22;;;21.69;32.38
64841;BME280;51307;52.162;7.560;2023-06-14T10:22:58;101334.31;;;21.71;32.06
64841;BME280;51307;52.162;7.560;2023-06-14T10:25:30;101330.25;;;21.80;31.88
64841;BME280;51307;52.162;7.560;2023-06-14T10:28:03;101327.53;;;21.80;32.70
64841;BME280;51307;52.162;7.560;2023-06-14T10:30:29;101328.47;;;21.93;32.78
64841;BME280;51307;52.162;7.560;2023-06-14T10:33:05;101337.53;;;21.87;32.24
64841;BME280;51307;52.162;7.560;2023-06-14T10:35:31;101326.03;;;22.03;32.66
64841;BME280;51307;52.162;7.560;2023-06-14T10:38:12;101325.41;;;22.08;32.21
64841;BME280;51307;52.162;7.560;2023-06-14T10:40:38;101321.63;;;22.09;32.25
64841;BME280;51307;52.162;7.560;2023-06-14T10:43:22;101321.63;;;22.09;32.80
64841;BME280;51307;52.162;7.560;2023-06-14T10:46:17;101325.78;;;22.11;31.78
64841;BME280;51307;52.162;7.560;2023-06-14T10:48:44;101320.94;;;22.13;31.62
64841;BME280;51307;52.162;7.560;2023-06-14T10:51:17;101324.56;;;22.26;32.96
64841;BME280;51307;52.162;7.560;2023-06-14T10:53:50;101321.03;;;22.25;31.85
64841;BME280;51307;52.162;7.560;2023-06-14T10:56:34;101310.63;;;22.34;32.92
64841;BME280;51307;52.162;7.560;2023-06-14T10:58:59;101304.38;;;22.33;32.12
64841;BME280;51307;52.162;7.560;2023-06-14T11:01:36;101308.59;;;22.29;31.67
64841;BME280;51307;52.162;7.560;2023-06-14T11:04:10;101317.47;;;22.25;32.41
64841;BME280;51307;52.162;7.560;2023-06-14T11:11:59;101304.66;;;22.25;32.43
64841;BME280;51307;52.162;7.560;2023-06-14T11:14:30;101299.63;;;22.29;32.37
64841;BME280;51307;52.162;7.560;2023-06-14T11:16:56;101308.53;;;22.36;32.47
64841;BME280;51307;52.162;7.560;2023-06-14T11:19:22;101306.41;;;22.38;32.87
64841;BME280;51307;52.162;7.560;2023-06-14T11:21:48;101305.06;;;22.47;33.24
64841;BME280;51307;52.162;7.560;2023-06-14T11:24:14;101304.56;;;22.57;33.13
64841;BME280;51307;52.162;7.560;2023-06-14T11:26:40;101305.16;;;22.59;32.92
64841;BME280;51307;52.162;7.560;2023-06-14T11:29:06;101301.28;;;22.48;32.22
64841;BME280;51307;52.162;7.560;2023-06-14T11:31:32;101304.63;;;22.51;32.93
64841;BME280;51307;52.162;7.560;2023-06-14T11:33:58;101299.38;;;22.49;32.10
64841;BME280;51307;52.162;7.560;2023-06-14T11:36:29;101291.13;;;22.56;32.19
64841;BME280;51307;52.162;7.560;2023-06-14T11:39:03;101283.31;;;22.59;32.09
64841;BME280;51307;52.162;7.560;2023-06-14T11:41:45;101288.22;;;22.69;32.77
64841;BME280;51307;52.162;7.560;2023-06-14T11:44:11;101294.00;;;22.61;32.67
64841;BME280;51307;52.162;7.560;2023-06-14T11:46:38;101280.28;;;22.68;32.09
64841;BME280;51307;52.162;7.560;2023-06-14T11:49:04;101287.50;;;22.62;32.14
64841;BME280;51307;52.162;7.560;2023-06-14T11:51:33;101281.06;;;22.75;32.26
64841;BME280;51307;52.162;7.560;2023-06-14T11:54:01;101282.78;;;22.69;32.28
64841;BME280;51307;52.162;7.560;2023-06-14T11:56:27;101285.63;;;22.93;32.91
64841;BME280;51307;52.162;7.560;2023-06-14T11:58:53;101294.28;;;22.90;31.92
64841;BME280;51307;52.162;7.560;2023-06-14T12:01:21;101295.09;;;22.90;32.36
64841;BME280;51307;52.162;7.560;2023-06-14T12:03:50;101282.31;;;23.03;31.45
64841;BME280;51307;52.162;7.560;2023-06-14T12:06:16;101293.56;;;22.94;32.05
64841;BME280;51307;52.162;7.560;2023-06-14T12:08:43;101289.31;;;22.98;32.25
64841;BME280;51307;52.162;7.560;2023-06-14T12:11:13;101283.03;;;22.98;31.88
64841;BME280;51307;52.162;7.560;2023-06-14T12:13:41;101287.09;;;23.07;31.14
64841;BME280;51307;52.162;7.560;2023-06-14T12:16:08;101281.03;;;23.05;31.78
64841;BME280;51307;52.162;7.560;2023-06-14T12:18:39;101285.91;;;23.03;31.31
64841;BME280;51307;52.162;7.560;2023-06-14T12:21:06;101283.69;;;23.12;31.38
64841;BME280;51307;52.162;7.560;2023-06-14T12:26:16;101282.53;;;23.20;30.56
64841;BME280;51307;52.162;7.560;2023-06-14T12:28:43;101275.06;;;23.27;31.79
64841;BME280;51307;52.162;7.560;2023-06-14T12:31:11;101284.78;;;23.23;30.87
64841;BME280;51307;52.162;7.560;2023-06-14T12:33:38;101281.47;;;23.21;30.18
64841;BME280;51307;52.162;7.560;2023-06-14T12:36:05;101284.56;;;23.24;30.53
64841;BME280;51307;52.162;7.560;2023-06-14T12:38:36;101287.44;;;23.29;31.18
64841;BME280;51307;52.162;7.560;2023-06-14T12:41:03;101274.97;;;23.33;31.43
64841;BME280;51307;52.162;7.560;2023-06-14T12:43:29;101280.94;;;23.42;30.86
64841;BME280;51307;52.162;7.560;2023-06-14T12:45:54;101283.66;;;23.42;30.34
64841;BME280;51307;52.162;7.560;2023-06-14T12:48:20;101282.00;;;23.41;30.48
64841;BME280;51307;52.162;7.560;2023-06-14T12:50:46;101278.44;;;23.53;30.48
64841;BME280;51307;52.162;7.560;2023-06-14T12:53:14;101282.38;;;23.45;30.10
64841;BME280;51307;52.162;7.560;2023-06-14T12:55:40;101288.44;;;23.59;30.22
64841;BME280;51307;52.162;7.560;2023-06-14T12:58:06;101295.78;;;23.70;30.79
64841;BME280;51307;52.162;7.560;2023-06-14T13:00:32;101292.22;;;23.58;29.72
64841;BME280;51307;52.162;7.560;2023-06-14T13:02:57;101293.06;;;23.58;29.37
64841;BME280;51307;52.162;7.560;2023-06-14T13:05:24;101284.53;;;23.66;30.00
64841;BME280;51307;52.162;7.560;2023-06-14T13:07:50;101283.00;;;23.71;29.20
64841;BME280;51307;52.162;7.560;2023-06-14T13:10:16;101276.09;;;23.68;28.98